Mount Clemens, MI

4:14 AM EDT on October 22, 2014 (GMT -0400)
Rivendell Sub | Change Station
CLOSE
Current Station
Personal Weather Station
Location: Sterling Heights, MI
Elevation: 610 ft
Nearby Weather Stations

Elev 610 ft 42.59 °N, 82.97 °W | Updated 4 minutes ago

Overcast
Overcast
45.0 °F
Feels Like 45 °F
N
0.1
Wind Variable Wind from NNW
Gusts 6.0 mph

Today
High -- | Low -- °F
--% Chance of Precip.
Yesterday
High -- | Low -- °F
Precip. -- in
7:52 AM 6:38 PM
Waning Crescent, 3% visible
Pressure 30.20 in
Visibility 10.0 miles
Clouds Overcast 1900 ft
Windchill 45 °F
Dew Point 23 °F
Humidity 42%
Rainfall 0.00 in
Snow Depth Not available.
UV 0 out of 12
Pollen 1.00 out of 12
Ozone Good
PM2.5 Good
Flu Activity Sporadic
SPECI KMTC 220808Z AUTO 36011KT 10SM OVC019 08/05 A3020 RMK AO2 $

More Conditions Fewer Conditions

Pressure 30.20 in
Visibility 10.0 miles
Clouds Overcast 1900 ft
Windchill 45 °F
Dew Point 23 °F
Humidity 42%
Rainfall 0.00 in
Snow Depth Not available.
UV 0 out of 12
Pollen 1.00 out of 12
Ozone Good
PM2.5 Good
Flu Activity Sporadic
SPECI KMTC 220808Z AUTO 36011KT 10SM OVC019 08/05 A3020 RMK AO2 $

More Conditions Fewer Conditions

10-Day Weather Forecast

Almanac

Astronomy

Oct. 22, 2014 Rise Set
Actual Time 7:52 AM EDT 6:38 PM EDT
Civil Twilight 7:24 AM EDT 7:07 PM EDT
Nautical Twilight 6:51 AM EDT 7:39 PM EDT
Astronomical Twilight 6:18 AM EDT 8:12 PM EDT
Moon 6:31 AM EDT 6:05 PM EDT
Length of Visible Light 11h 42m
Length of Day
10h 45m
Tomorrow will be 2m 42s shorter.
Waning Crescent, 3% of the Moon is Illuminated
Today
Waning Crescent
Oct 23
New
Oct 30
First Quarter
Nov 6
Full
Nov 14
Last Quarter

Today's Extremes

State Highs State Lows

Community

WunderPhotos

Upload Photos

1,763,889 photos uploaded!

Nearby

Air Quality

  Air Quality AQ Index Pollutant
Yesterday Good
PM10
Yesterday Good
OZONE
Current Good
PM2.5
Current Good
OZONE
Wednesday Good
PM2.5
Thursday Good
PM2.5
Friday Good
PM2.5
Saturday Good
PM2.5

Snow Depth

Station Depth Elevation
No new snow has been reported.

Earthquake Activity

City Distance Mag. Time & Date
No recent earthquake activity has been reported nearby.
Minimum magnitude displayed is 2.5.

Coastal Water Temperatures

Place Temperature
No Stations Reporting

Nearby Weather Stations